createdAt,value
2022-12-01T00:04:33.168Z,18.8
2022-12-01T00:10:17.092Z,18.5
2022-12-01T00:16:00.115Z,18.8
2022-12-01T00:21:43.195Z,18.5
2022-12-01T00:27:26.124Z,21.2
2022-12-01T00:33:09.176Z,18
2022-12-01T00:38:54.235Z,19.1
2022-12-01T00:44:37.227Z,20.2
2022-12-01T00:50:20.289Z,18.6
2022-12-01T00:56:03.240Z,20.7
2022-12-01T01:01:47.403Z,18.9
2022-12-01T01:07:32.388Z,20.2
2022-12-01T01:13:16.998Z,18.9
2022-12-01T01:19:00.143Z,19
2022-12-01T01:24:43.670Z,19.7
2022-12-01T01:30:27.070Z,20
2022-12-01T01:36:10.488Z,18.9
2022-12-01T01:41:53.508Z,18.2
2022-12-01T01:47:38.487Z,19.6
2022-12-01T01:53:21.612Z,19.5
2022-12-01T01:59:05.247Z,19.2
2022-12-01T02:04:49.216Z,18.4
2022-12-01T02:10:37.334Z,18.8
2022-12-01T02:16:23.488Z,19.5
2022-12-01T02:22:13.036Z,20.7
2022-12-01T02:28:04.681Z,18.7
2022-12-01T02:33:53.830Z,19.4
2022-12-01T02:39:40.770Z,18.2
2022-12-01T02:45:27.385Z,18.7
2022-12-01T02:51:14.121Z,17.8
2022-12-01T02:56:58.132Z,18.2
2022-12-01T03:02:46.488Z,18.1
2022-12-01T03:08:34.973Z,18.6
2022-12-01T03:14:24.414Z,18.4
2022-12-01T03:20:09.658Z,17.8
2022-12-01T03:25:54.909Z,19.1
2022-12-01T03:31:39.902Z,19.5
2022-12-01T03:37:25.903Z,19.2
2022-12-01T03:43:10.181Z,20.5
2022-12-01T03:48:53.680Z,20.9
2022-12-01T03:54:42.461Z,21.8
2022-12-01T04:00:25.592Z,21.3
2022-12-01T04:06:08.886Z,20.4
2022-12-01T04:11:51.497Z,21.9
2022-12-01T04:17:34.621Z,20.1
2022-12-01T04:23:17.930Z,22.1
2022-12-01T04:29:01.857Z,21.9
2022-12-01T04:34:44.840Z,21.8
2022-12-01T04:40:27.965Z,22.8
2022-12-01T04:46:11.941Z,22.1
2022-12-01T04:51:54.954Z,24
2022-12-01T04:57:37.843Z,22.3
2022-12-01T05:03:20.771Z,24.8
2022-12-01T05:09:04.224Z,26.9
2022-12-01T05:14:48.234Z,24
2022-12-01T05:20:31.487Z,22
2022-12-01T05:26:14.691Z,24
2022-12-01T05:31:57.848Z,22.4
2022-12-01T05:37:40.999Z,24.5
2022-12-01T05:43:31.511Z,24.7
2022-12-01T05:49:14.421Z,23.6
2022-12-01T05:54:58.478Z,22.9
2022-12-01T06:00:48.123Z,26.6
2022-12-01T06:06:32.206Z,22.8
2022-12-01T06:12:15.854Z,24.1
2022-12-01T06:18:01.207Z,25.2
2022-12-01T06:23:44.127Z,24
2022-12-01T06:29:27.221Z,23
2022-12-01T06:35:12.589Z,22.7
2022-12-01T06:41:01.696Z,23.3
2022-12-01T06:46:44.880Z,23.9
2022-12-01T06:52:28.022Z,22.8
2022-12-01T06:58:11.379Z,24.5
2022-12-01T07:03:54.616Z,22.2
2022-12-01T07:09:37.666Z,23.4
2022-12-01T07:15:21.165Z,23.1
2022-12-01T07:21:06.360Z,25.6
2022-12-01T07:26:49.296Z,23.5
2022-12-01T07:32:33.589Z,22.2
2022-12-01T07:38:24.176Z,21.5
2022-12-01T07:44:07.198Z,22.9
2022-12-01T07:49:51.852Z,24.2
2022-12-01T07:55:35.858Z,22
2022-12-01T08:01:21.789Z,23.1
2022-12-01T08:07:06.037Z,25.9
2022-12-01T08:12:49.986Z,26.3
2022-12-01T08:18:33.158Z,27.3
2022-12-01T08:24:17.177Z,24.2
2022-12-01T08:30:00.340Z,24.5
2022-12-01T08:35:43.422Z,24.6
2022-12-01T08:41:26.802Z,24.9
2022-12-01T08:47:15.669Z,25.3
2022-12-01T08:53:00.040Z,22.6
2022-12-01T08:58:43.181Z,23.9
2022-12-01T09:04:27.305Z,28.2
2022-12-01T09:10:11.076Z,25.8
2022-12-01T09:16:01.730Z,24.4
2022-12-01T09:21:45.092Z,25.1
2022-12-01T09:27:27.930Z,25.9
2022-12-01T09:33:11.986Z,22.8
2022-12-01T09:38:55.085Z,24.3
2022-12-01T09:44:41.284Z,25.3
2022-12-01T09:50:25.257Z,27
2022-12-01T09:56:14.996Z,27.8
2022-12-01T10:02:01.557Z,27.2
2022-12-01T10:07:47.296Z,24.3
2022-12-01T10:13:31.543Z,26.7
2022-12-01T10:19:18.012Z,27
2022-12-01T10:25:04.565Z,28.5
2022-12-01T10:30:51.765Z,26.7
2022-12-01T10:36:35.957Z,26.4
2022-12-01T10:42:21.835Z,30.1
2022-12-01T10:48:16.294Z,31.2
2022-12-01T10:54:09.053Z,32.5
2022-12-01T10:59:58.235Z,28.2
2022-12-01T11:05:43.457Z,30.1
2022-12-01T11:11:31.790Z,29.7
2022-12-01T11:17:27.170Z,28.8
2022-12-01T11:23:24.765Z,27.5
2022-12-01T11:29:09.555Z,29.2
2022-12-01T11:34:56.973Z,26
2022-12-01T11:40:44.839Z,25.9
2022-12-01T11:46:30.976Z,24.9
2022-12-01T11:52:25.386Z,20.8
2022-12-01T11:58:10.759Z,23.5
2022-12-01T12:03:59.054Z,23.3
2022-12-01T12:09:50.235Z,20.2
2022-12-01T12:15:39.758Z,20.9
2022-12-01T12:21:28.107Z,22.9
2022-12-01T12:27:15.049Z,21.6
2022-12-01T12:33:06.895Z,18.7
2022-12-01T12:38:56.849Z,18.7
2022-12-01T12:44:49.410Z,19.2
2022-12-01T12:50:37.377Z,19.9
2022-12-01T12:56:23.132Z,19.8
2022-12-01T13:02:11.075Z,18.2
2022-12-01T13:07:56.631Z,17.4
2022-12-01T13:13:43.379Z,16.9
2022-12-01T13:19:29.592Z,17.3
2022-12-01T13:25:14.226Z,15.9
2022-12-01T13:31:10.065Z,15.6
2022-12-01T13:36:57.094Z,15.6
2022-12-01T13:42:40.531Z,14.6
2022-12-01T13:48:38.236Z,16
2022-12-01T13:54:32.431Z,14.6
2022-12-01T14:00:27.229Z,14.5
2022-12-01T14:06:22.145Z,17.2
2022-12-01T14:12:06.485Z,15.1
2022-12-01T14:17:50.512Z,14.6
2022-12-01T14:23:34.768Z,14.5
2022-12-01T14:29:41.173Z,16.1
2022-12-01T14:35:24.319Z,14.7
2022-12-01T14:41:09.589Z,15.1
2022-12-01T14:46:55.976Z,15.3
2022-12-01T14:52:40.301Z,13.9
2022-12-01T14:58:24.650Z,16.5
2022-12-01T15:04:09.126Z,14.5
2022-12-01T15:10:04.509Z,14.6
2022-12-01T15:15:57.323Z,15.2
2022-12-01T15:21:40.611Z,14.5
2022-12-01T15:27:34.019Z,15.8
2022-12-01T15:33:37.127Z,15.2
2022-12-01T15:39:23.155Z,14.6
2022-12-01T15:45:11.124Z,14.9
2022-12-01T15:50:58.989Z,15.1
2022-12-01T15:56:43.493Z,15.3
2022-12-01T16:02:29.760Z,15.8
2022-12-01T16:08:21.323Z,17.5
2022-12-01T16:14:05.761Z,16.5
2022-12-01T16:19:48.721Z,15.3
2022-12-01T16:25:36.221Z,16.2
2022-12-01T16:31:24.785Z,17.3
2022-12-01T16:37:07.632Z,18.2
2022-12-01T16:42:52.454Z,18.4
2022-12-01T16:48:36.574Z,17.6
2022-12-01T16:54:19.523Z,17.3
2022-12-01T17:00:06.088Z,18
2022-12-01T17:05:50.007Z,19
2022-12-01T17:11:33.010Z,18
2022-12-01T17:17:15.813Z,18.4
2022-12-01T17:22:59.209Z,18.5
2022-12-01T17:28:43.260Z,19.8
2022-12-01T17:34:26.161Z,21.8
2022-12-01T17:40:10.303Z,110.3
2022-12-01T17:45:54.335Z,78.9
2022-12-01T17:51:38.582Z,65.9
2022-12-01T17:57:21.736Z,82.9
2022-12-01T18:03:06.136Z,69.7
2022-12-01T18:08:49.397Z,87.6
2022-12-01T18:14:32.374Z,60.1
2022-12-01T18:20:16.152Z,60
2022-12-01T18:25:59.242Z,59.4
2022-12-01T18:31:43.563Z,53.1
2022-12-01T18:37:26.562Z,52.1
2022-12-01T18:43:09.750Z,48.9
2022-12-01T18:48:53.724Z,48
2022-12-01T18:54:37.034Z,44.7
2022-12-01T19:00:43.448Z,45.8
2022-12-01T19:06:26.484Z,41.9
2022-12-01T19:12:10.087Z,42.5
2022-12-01T19:17:53.413Z,37.6
2022-12-01T19:23:36.851Z,39
2022-12-01T19:29:20.057Z,38.1
2022-12-01T19:35:03.067Z,37.6
2022-12-01T19:40:46.270Z,42
2022-12-01T19:46:29.765Z,37.3
2022-12-01T19:52:13.668Z,36.3
2022-12-01T19:57:56.664Z,35.8
2022-12-01T20:03:40.190Z,32.8
2022-12-01T20:09:23.256Z,34.1
2022-12-01T20:15:06.748Z,33.7
2022-12-01T20:20:50.801Z,31.5
2022-12-01T20:26:34.580Z,31.3
2022-12-01T20:32:25.539Z,30.9
2022-12-01T20:38:08.712Z,29.2
2022-12-01T20:43:52.815Z,29.8
2022-12-01T20:49:35.934Z,32.1
2022-12-01T20:55:20.718Z,31.7
2022-12-01T21:01:09.210Z,30.4
2022-12-01T21:06:52.254Z,28.9
2022-12-01T21:12:35.298Z,31.5
2022-12-01T21:18:22.257Z,27.5
2022-12-01T21:24:13.680Z,28.9
2022-12-01T21:29:57.824Z,29.2
2022-12-01T21:35:40.811Z,32.3
2022-12-01T21:41:27.008Z,27
2022-12-01T21:47:16.264Z,28.3
2022-12-01T21:53:00.487Z,30.6
2022-12-01T21:58:43.461Z,28.7
2022-12-01T22:04:28.365Z,30.3
2022-12-01T22:10:24.669Z,29.4
2022-12-01T22:16:12.443Z,27.6
2022-12-01T22:22:00.072Z,30.8
2022-12-01T22:27:44.673Z,29.9
2022-12-01T22:33:36.422Z,30.7
2022-12-01T22:39:28.985Z,29.4
2022-12-01T22:45:19.776Z,30
2022-12-01T22:51:08.438Z,29.5
2022-12-01T22:56:52.641Z,27.3
2022-12-01T23:02:36.894Z,29
2022-12-01T23:08:24.653Z,30.8
2022-12-01T23:14:09.488Z,28.2
2022-12-01T23:19:53.145Z,29.6
2022-12-01T23:25:36.574Z,33.4
2022-12-01T23:31:19.815Z,28.8
2022-12-01T23:37:05.158Z,31.1
2022-12-01T23:42:48.194Z,30
2022-12-01T23:48:35.431Z,29.9
2022-12-01T23:54:19.376Z,29.4
